sensor_id;sensor_type;location;lat;lon;timestamp;P1;durP1;ratioP1;P2;durP2;ratioP2
31734;SDS011;18313;48.518;9.124;2023-06-14T00:00:32;5.20;;;3.22;;
31734;SDS011;18313;48.518;9.124;2023-06-14T00:03:01;5.60;;;3.10;;
31734;SDS011;18313;48.518;9.124;2023-06-14T00:05:30;4.68;;;2.95;;
31734;SDS011;18313;48.518;9.124;2023-06-14T00:08:00;8.38;;;3.53;;
31734;SDS011;18313;48.518;9.124;2023-06-14T00:10:27;5.97;;;3.13;;
31734;SDS011;18313;48.518;9.124;2023-06-14T00:12:57;5.18;;;3.40;;
31734;SDS011;18313;48.518;9.124;2023-06-14T00:15:26;4.93;;;3.38;;
31734;SDS011;18313;48.518;9.124;2023-06-14T00:17:54;6.85;;;4.03;;
31734;SDS011;18313;48.518;9.124;2023-06-14T00:20:22;7.85;;;3.60;;
31734;SDS011;18313;48.518;9.124;2023-06-14T00:22:50;6.18;;;3.58;;
31734;SDS011;18313;48.518;9.124;2023-06-14T00:25:18;6.18;;;3.40;;
31734;SDS011;18313;48.518;9.124;2023-06-14T00:27:55;5.72;;;3.22;;
31734;SDS011;18313;48.518;9.124;2023-06-14T00:30:23;7.97;;;3.70;;
31734;SDS011;18313;48.518;9.124;2023-06-14T00:32:51;6.15;;;3.40;;
31734;SDS011;18313;48.518;9.124;2023-06-14T00:35:19;6.15;;;3.30;;
31734;SDS011;18313;48.518;9.124;2023-06-14T00:37:46;7.38;;;3.90;;
31734;SDS011;18313;48.518;9.124;2023-06-14T00:40:14;5.40;;;3.40;;
31734;SDS011;18313;48.518;9.124;2023-06-14T00:42:41;5.90;;;3.30;;
31734;SDS011;18313;48.518;9.124;2023-06-14T00:45:08;6.32;;;3.20;;
31734;SDS011;18313;48.518;9.124;2023-06-14T00:47:36;4.70;;;3.40;;
31734;SDS011;18313;48.518;9.124;2023-06-14T00:50:08;8.45;;;3.65;;
31734;SDS011;18313;48.518;9.124;2023-06-14T00:52:36;8.75;;;3.63;;
31734;SDS011;18313;48.518;9.124;2023-06-14T00:55:03;5.15;;;3.35;;
31734;SDS011;18313;48.518;9.124;2023-06-14T00:57:31;7.13;;;3.78;;
31734;SDS011;18313;48.518;9.124;2023-06-14T00:59:58;5.35;;;3.30;;
31734;SDS011;18313;48.518;9.124;2023-06-14T01:02:26;5.45;;;3.55;;
31734;SDS011;18313;48.518;9.124;2023-06-14T01:04:53;5.85;;;3.65;;
31734;SDS011;18313;48.518;9.124;2023-06-14T01:10:15;4.90;;;3.33;;
31734;SDS011;18313;48.518;9.124;2023-06-14T01:15:44;9.35;;;4.28;;
31734;SDS011;18313;48.518;9.124;2023-06-14T01:18:13;5.82;;;3.72;;
31734;SDS011;18313;48.518;9.124;2023-06-14T01:20:46;6.47;;;3.72;;
31734;SDS011;18313;48.518;9.124;2023-06-14T01:23:17;5.72;;;3.72;;
31734;SDS011;18313;48.518;9.124;2023-06-14T01:25:45;5.72;;;3.42;;
31734;SDS011;18313;48.518;9.124;2023-06-14T01:28:14;6.75;;;3.30;;
31734;SDS011;18313;48.518;9.124;2023-06-14T01:30:44;8.60;;;3.83;;
31734;SDS011;18313;48.518;9.124;2023-06-14T01:33:13;7.55;;;3.45;;
31734;SDS011;18313;48.518;9.124;2023-06-14T01:35:45;7.03;;;3.97;;
31734;SDS011;18313;48.518;9.124;2023-06-14T01:38:14;4.60;;;3.13;;
31734;SDS011;18313;48.518;9.124;2023-06-14T01:40:42;5.38;;;3.50;;
31734;SDS011;18313;48.518;9.124;2023-06-14T01:43:14;7.13;;;3.55;;
31734;SDS011;18313;48.518;9.124;2023-06-14T01:45:42;6.28;;;3.58;;
31734;SDS011;18313;48.518;9.124;2023-06-14T01:48:11;5.60;;;3.50;;
31734;SDS011;18313;48.518;9.124;2023-06-14T01:50:38;7.13;;;3.60;;
31734;SDS011;18313;48.518;9.124;2023-06-14T01:53:09;6.22;;;3.70;;
31734;SDS011;18313;48.518;9.124;2023-06-14T01:55:37;5.55;;;3.63;;
31734;SDS011;18313;48.518;9.124;2023-06-14T01:58:05;6.85;;;3.40;;
31734;SDS011;18313;48.518;9.124;2023-06-14T02:00:32;6.30;;;3.85;;
31734;SDS011;18313;48.518;9.124;2023-06-14T02:02:59;5.22;;;3.13;;
31734;SDS011;18313;48.518;9.124;2023-06-14T02:05:27;5.07;;;3.22;;
31734;SDS011;18313;48.518;9.124;2023-06-14T02:07:54;6.40;;;3.67;;
31734;SDS011;18313;48.518;9.124;2023-06-14T02:10:21;5.90;;;3.50;;
31734;SDS011;18313;48.518;9.124;2023-06-14T02:12:48;6.38;;;4.00;;
31734;SDS011;18313;48.518;9.124;2023-06-14T02:15:16;5.85;;;3.40;;
31734;SDS011;18313;48.518;9.124;2023-06-14T02:17:45;4.85;;;3.65;;
31734;SDS011;18313;48.518;9.124;2023-06-14T02:20:13;6.65;;;3.47;;
31734;SDS011;18313;48.518;9.124;2023-06-14T02:22:44;6.72;;;3.15;;
31734;SDS011;18313;48.518;9.124;2023-06-14T02:25:11;7.13;;;3.35;;
31734;SDS011;18313;48.518;9.124;2023-06-14T02:27:39;5.65;;;3.50;;
31734;SDS011;18313;48.518;9.124;2023-06-14T02:30:06;5.70;;;4.18;;
31734;SDS011;18313;48.518;9.124;2023-06-14T02:32:33;8.93;;;4.03;;
31734;SDS011;18313;48.518;9.124;2023-06-14T02:35:02;6.40;;;3.92;;
31734;SDS011;18313;48.518;9.124;2023-06-14T02:37:30;7.55;;;4.03;;
31734;SDS011;18313;48.518;9.124;2023-06-14T02:39:58;6.05;;;3.65;;
31734;SDS011;18313;48.518;9.124;2023-06-14T02:42:26;11.02;;;4.55;;
31734;SDS011;18313;48.518;9.124;2023-06-14T02:44:53;8.80;;;4.40;;
31734;SDS011;18313;48.518;9.124;2023-06-14T02:47:20;6.43;;;4.30;;
31734;SDS011;18313;48.518;9.124;2023-06-14T02:49:47;7.78;;;4.15;;
31734;SDS011;18313;48.518;9.124;2023-06-14T02:52:14;8.05;;;4.10;;
31734;SDS011;18313;48.518;9.124;2023-06-14T02:54:42;6.05;;;4.15;;
31734;SDS011;18313;48.518;9.124;2023-06-14T02:57:09;7.38;;;4.28;;
31734;SDS011;18313;48.518;9.124;2023-06-14T02:59:37;6.18;;;4.20;;
31734;SDS011;18313;48.518;9.124;2023-06-14T03:02:04;7.75;;;4.28;;
31734;SDS011;18313;48.518;9.124;2023-06-14T03:04:32;5.13;;;3.70;;
31734;SDS011;18313;48.518;9.124;2023-06-14T03:07:04;6.90;;;3.95;;
31734;SDS011;18313;48.518;9.124;2023-06-14T03:09:35;6.78;;;4.20;;
31734;SDS011;18313;48.518;9.124;2023-06-14T03:12:04;5.53;;;3.88;;
31734;SDS011;18313;48.518;9.124;2023-06-14T03:14:33;7.47;;;4.50;;
31734;SDS011;18313;48.518;9.124;2023-06-14T03:17:02;6.53;;;4.13;;
31734;SDS011;18313;48.518;9.124;2023-06-14T03:19:31;9.10;;;4.57;;
31734;SDS011;18313;48.518;9.124;2023-06-14T03:21:58;8.02;;;4.30;;
31734;SDS011;18313;48.518;9.124;2023-06-14T03:24:25;6.38;;;4.22;;
31734;SDS011;18313;48.518;9.124;2023-06-14T03:26:56;8.52;;;4.32;;
31734;SDS011;18313;48.518;9.124;2023-06-14T03:29:23;6.72;;;4.35;;
31734;SDS011;18313;48.518;9.124;2023-06-14T03:31:58;7.00;;;4.40;;
31734;SDS011;18313;48.518;9.124;2023-06-14T03:34:26;5.93;;;4.10;;
31734;SDS011;18313;48.518;9.124;2023-06-14T03:36:53;7.00;;;4.03;;
31734;SDS011;18313;48.518;9.124;2023-06-14T03:39:21;8.02;;;4.70;;
31734;SDS011;18313;48.518;9.124;2023-06-14T03:41:48;8.65;;;4.47;;
31734;SDS011;18313;48.518;9.124;2023-06-14T03:44:16;6.00;;;4.07;;
31734;SDS011;18313;48.518;9.124;2023-06-14T03:46:45;6.85;;;4.43;;
31734;SDS011;18313;48.518;9.124;2023-06-14T03:49:13;5.68;;;4.15;;
31734;SDS011;18313;48.518;9.124;2023-06-14T03:51:40;8.68;;;4.22;;
31734;SDS011;18313;48.518;9.124;2023-06-14T03:54:07;9.40;;;4.65;;
31734;SDS011;18313;48.518;9.124;2023-06-14T03:56:37;6.53;;;4.20;;
31734;SDS011;18313;48.518;9.124;2023-06-14T03:59:04;6.50;;;4.38;;
31734;SDS011;18313;48.518;9.124;2023-06-14T04:01:31;7.88;;;4.13;;
31734;SDS011;18313;48.518;9.124;2023-06-14T04:04:00;7.50;;;4.55;;
31734;SDS011;18313;48.518;9.124;2023-06-14T04:06:27;6.65;;;4.43;;
31734;SDS011;18313;48.518;9.124;2023-06-14T04:08:59;9.27;;;4.40;;
31734;SDS011;18313;48.518;9.124;2023-06-14T04:11:31;7.20;;;4.30;;
31734;SDS011;18313;48.518;9.124;2023-06-14T04:13:58;6.60;;;4.38;;
31734;SDS011;18313;48.518;9.124;2023-06-14T04:16:26;7.07;;;4.80;;
31734;SDS011;18313;48.518;9.124;2023-06-14T04:18:54;9.10;;;4.60;;
31734;SDS011;18313;48.518;9.124;2023-06-14T04:21:22;8.23;;;4.57;;
31734;SDS011;18313;48.518;9.124;2023-06-14T04:23:49;9.07;;;4.50;;
31734;SDS011;18313;48.518;9.124;2023-06-14T04:26:19;7.05;;;4.35;;
31734;SDS011;18313;48.518;9.124;2023-06-14T04:28:49;8.52;;;4.80;;
31734;SDS011;18313;48.518;9.124;2023-06-14T04:31:17;7.88;;;4.95;;
31734;SDS011;18313;48.518;9.124;2023-06-14T04:33:44;7.70;;;4.65;;
31734;SDS011;18313;48.518;9.124;2023-06-14T04:36:13;8.27;;;4.88;;
31734;SDS011;18313;48.518;9.124;2023-06-14T04:38:44;6.80;;;4.35;;
31734;SDS011;18313;48.518;9.124;2023-06-14T04:41:15;8.73;;;4.30;;
31734;SDS011;18313;48.518;9.124;2023-06-14T04:43:42;8.48;;;4.70;;
31734;SDS011;18313;48.518;9.124;2023-06-14T04:46:10;8.88;;;4.90;;
31734;SDS011;18313;48.518;9.124;2023-06-14T04:48:38;6.55;;;4.80;;
31734;SDS011;18313;48.518;9.124;2023-06-14T04:51:09;6.40;;;4.22;;
31734;SDS011;18313;48.518;9.124;2023-06-14T04:53:36;7.18;;;4.50;;
31734;SDS011;18313;48.518;9.124;2023-06-14T04:56:03;6.35;;;4.35;;
31734;SDS011;18313;48.518;9.124;2023-06-14T04:58:31;8.27;;;4.60;;
31734;SDS011;18313;48.518;9.124;2023-06-14T05:00:58;8.32;;;4.35;;
31734;SDS011;18313;48.518;9.124;2023-06-14T05:03:26;9.02;;;4.40;;
31734;SDS011;18313;48.518;9.124;2023-06-14T05:05:54;7.80;;;4.43;;
31734;SDS011;18313;48.518;9.124;2023-06-14T05:08:21;7.40;;;4.05;;
31734;SDS011;18313;48.518;9.124;2023-06-14T05:10:52;8.05;;;4.53;;
31734;SDS011;18313;48.518;9.124;2023-06-14T05:13:19;9.35;;;4.20;;
31734;SDS011;18313;48.518;9.124;2023-06-14T05:15:48;8.85;;;4.50;;
31734;SDS011;18313;48.518;9.124;2023-06-14T05:18:15;7.47;;;4.30;;
31734;SDS011;18313;48.518;9.124;2023-06-14T05:20:43;10.40;;;4.45;;
31734;SDS011;18313;48.518;9.124;2023-06-14T05:23:11;6.32;;;3.75;;
31734;SDS011;18313;48.518;9.124;2023-06-14T05:25:45;5.57;;;3.85;;
31734;SDS011;18313;48.518;9.124;2023-06-14T05:28:13;10.20;;;4.97;;
31734;SDS011;18313;48.518;9.124;2023-06-14T05:30:40;9.88;;;4.40;;
31734;SDS011;18313;48.518;9.124;2023-06-14T05:33:07;6.43;;;4.35;;
31734;SDS011;18313;48.518;9.124;2023-06-14T05:35:34;6.22;;;4.25;;
31734;SDS011;18313;48.518;9.124;2023-06-14T05:38:02;6.40;;;4.07;;
31734;SDS011;18313;48.518;9.124;2023-06-14T05:40:32;6.70;;;4.50;;
31734;SDS011;18313;48.518;9.124;2023-06-14T05:42:59;10.20;;;4.78;;
31734;SDS011;18313;48.518;9.124;2023-06-14T05:45:26;13.38;;;4.25;;
31734;SDS011;18313;48.518;9.124;2023-06-14T05:47:53;7.53;;;4.65;;
31734;SDS011;18313;48.518;9.124;2023-06-14T05:50:21;9.20;;;4.45;;
31734;SDS011;18313;48.518;9.124;2023-06-14T05:52:48;7.97;;;4.30;;
31734;SDS011;18313;48.518;9.124;2023-06-14T05:55:16;7.93;;;4.40;;
31734;SDS011;18313;48.518;9.124;2023-06-14T05:57:44;9.25;;;4.88;;
31734;SDS011;18313;48.518;9.124;2023-06-14T06:00:14;9.25;;;4.57;;
31734;SDS011;18313;48.518;9.124;2023-06-14T06:02:42;10.60;;;4.53;;
31734;SDS011;18313;48.518;9.124;2023-06-14T06:05:11;6.28;;;4.53;;
31734;SDS011;18313;48.518;9.124;2023-06-14T06:07:39;9.88;;;4.53;;
31734;SDS011;18313;48.518;9.124;2023-06-14T06:10:07;7.32;;;4.80;;
31734;SDS011;18313;48.518;9.124;2023-06-14T06:12:34;10.50;;;4.63;;
31734;SDS011;18313;48.518;9.124;2023-06-14T06:15:01;7.00;;;4.18;;
31734;SDS011;18313;48.518;9.124;2023-06-14T06:17:29;7.68;;;4.40;;
31734;SDS011;18313;48.518;9.124;2023-06-14T06:20:16;7.45;;;4.63;;
31734;SDS011;18313;48.518;9.124;2023-06-14T06:22:43;6.30;;;4.00;;
31734;SDS011;18313;48.518;9.124;2023-06-14T06:25:11;8.30;;;4.93;;
31734;SDS011;18313;48.518;9.124;2023-06-14T06:27:38;6.05;;;4.00;;
31734;SDS011;18313;48.518;9.124;2023-06-14T06:30:06;5.68;;;3.88;;
31734;SDS011;18313;48.518;9.124;2023-06-14T06:32:34;8.25;;;4.80;;
31734;SDS011;18313;48.518;9.124;2023-06-14T06:35:01;6.43;;;4.28;;
31734;SDS011;18313;48.518;9.124;2023-06-14T06:37:28;9.63;;;4.72;;
31734;SDS011;18313;48.518;9.124;2023-06-14T06:39:55;7.85;;;4.75;;
31734;SDS011;18313;48.518;9.124;2023-06-14T06:42:22;7.03;;;4.10;;
31734;SDS011;18313;48.518;9.124;2023-06-14T06:44:51;6.82;;;4.88;;
31734;SDS011;18313;48.518;9.124;2023-06-14T06:47:18;7.25;;;4.55;;
31734;SDS011;18313;48.518;9.124;2023-06-14T06:49:45;7.55;;;4.70;;
31734;SDS011;18313;48.518;9.124;2023-06-14T06:52:12;7.53;;;4.00;;
31734;SDS011;18313;48.518;9.124;2023-06-14T06:54:40;6.18;;;4.15;;
31734;SDS011;18313;48.518;9.124;2023-06-14T06:57:07;8.27;;;4.13;;
31734;SDS011;18313;48.518;9.124;2023-06-14T06:59:35;8.38;;;4.00;;
31734;SDS011;18313;48.518;9.124;2023-06-14T07:02:02;6.80;;;4.20;;
31734;SDS011;18313;48.518;9.124;2023-06-14T07:04:30;8.38;;;4.30;;
31734;SDS011;18313;48.518;9.124;2023-06-14T07:06:57;6.78;;;4.20;;
31734;SDS011;18313;48.518;9.124;2023-06-14T07:09:25;8.38;;;4.22;;
31734;SDS011;18313;48.518;9.124;2023-06-14T07:11:52;8.57;;;4.28;;
31734;SDS011;18313;48.518;9.124;2023-06-14T07:14:19;6.68;;;4.10;;
31734;SDS011;18313;48.518;9.124;2023-06-14T07:16:49;9.82;;;4.10;;
31734;SDS011;18313;48.518;9.124;2023-06-14T07:19:16;8.65;;;4.35;;
31734;SDS011;18313;48.518;9.124;2023-06-14T07:21:43;8.93;;;4.40;;
31734;SDS011;18313;48.518;9.124;2023-06-14T07:24:11;10.07;;;4.35;;
31734;SDS011;18313;48.518;9.124;2023-06-14T07:26:38;8.15;;;3.95;;
31734;SDS011;18313;48.518;9.124;2023-06-14T07:29:05;8.15;;;4.10;;
31734;SDS011;18313;48.518;9.124;2023-06-14T07:31:32;7.80;;;4.00;;
31734;SDS011;18313;48.518;9.124;2023-06-14T07:33:59;7.60;;;4.38;;
31734;SDS011;18313;48.518;9.124;2023-06-14T07:36:26;6.70;;;4.22;;
31734;SDS011;18313;48.518;9.124;2023-06-14T07:38:53;8.18;;;3.90;;
31734;SDS011;18313;48.518;9.124;2023-06-14T07:41:21;8.27;;;4.43;;
31734;SDS011;18313;48.518;9.124;2023-06-14T07:43:48;7.68;;;3.63;;
31734;SDS011;18313;48.518;9.124;2023-06-14T07:46:15;8.82;;;4.43;;
31734;SDS011;18313;48.518;9.124;2023-06-14T07:48:42;9.45;;;4.05;;
31734;SDS011;18313;48.518;9.124;2023-06-14T07:51:10;6.93;;;4.43;;
31734;SDS011;18313;48.518;9.124;2023-06-14T07:53:37;5.85;;;3.97;;
31734;SDS011;18313;48.518;9.124;2023-06-14T07:56:04;10.32;;;4.15;;
31734;SDS011;18313;48.518;9.124;2023-06-14T07:58:31;7.03;;;4.13;;
31734;SDS011;18313;48.518;9.124;2023-06-14T08:00:59;6.15;;;4.10;;
31734;SDS011;18313;48.518;9.124;2023-06-14T08:03:33;10.27;;;4.00;;
31734;SDS011;18313;48.518;9.124;2023-06-14T08:06:01;7.35;;;4.22;;
31734;SDS011;18313;48.518;9.124;2023-06-14T08:08:28;7.35;;;4.03;;
31734;SDS011;18313;48.518;9.124;2023-06-14T08:10:56;8.20;;;3.88;;
31734;SDS011;18313;48.518;9.124;2023-06-14T08:13:23;6.85;;;4.22;;
31734;SDS011;18313;48.518;9.124;2023-06-14T08:15:50;7.35;;;4.53;;
31734;SDS011;18313;48.518;9.124;2023-06-14T08:18:17;10.55;;;4.20;;
31734;SDS011;18313;48.518;9.124;2023-06-14T08:20:45;6.50;;;3.83;;
31734;SDS011;18313;48.518;9.124;2023-06-14T08:23:12;7.30;;;3.75;;
31734;SDS011;18313;48.518;9.124;2023-06-14T08:25:39;11.57;;;3.67;;
31734;SDS011;18313;48.518;9.124;2023-06-14T08:28:06;6.60;;;3.40;;
31734;SDS011;18313;48.518;9.124;2023-06-14T08:30:34;5.82;;;3.33;;
31734;SDS011;18313;48.518;9.124;2023-06-14T08:33:01;7.20;;;3.45;;
31734;SDS011;18313;48.518;9.124;2023-06-14T08:35:42;7.80;;;3.60;;
31734;SDS011;18313;48.518;9.124;2023-06-14T08:38:10;9.52;;;3.50;;
31734;SDS011;18313;48.518;9.124;2023-06-14T08:40:38;7.65;;;3.10;;
31734;SDS011;18313;48.518;9.124;2023-06-14T08:43:08;7.20;;;3.00;;
31734;SDS011;18313;48.518;9.124;2023-06-14T08:45:36;7.15;;;2.88;;
31734;SDS011;18313;48.518;9.124;2023-06-14T08:48:03;6.32;;;2.83;;
31734;SDS011;18313;48.518;9.124;2023-06-14T08:50:32;8.70;;;3.28;;
31734;SDS011;18313;48.518;9.124;2023-06-14T08:53:04;6.25;;;2.75;;
31734;SDS011;18313;48.518;9.124;2023-06-14T08:55:31;7.90;;;3.10;;
31734;SDS011;18313;48.518;9.124;2023-06-14T08:58:03;5.95;;;3.20;;
31734;SDS011;18313;48.518;9.124;2023-06-14T09:00:32;5.32;;;2.80;;
31734;SDS011;18313;48.518;9.124;2023-06-14T09:03:00;6.25;;;3.30;;
31734;SDS011;18313;48.518;9.124;2023-06-14T09:05:28;8.43;;;3.58;;
31734;SDS011;18313;48.518;9.124;2023-06-14T09:07:55;7.25;;;3.17;;
31734;SDS011;18313;48.518;9.124;2023-06-14T09:10:32;5.95;;;3.03;;
31734;SDS011;18313;48.518;9.124;2023-06-14T09:13:05;9.02;;;3.05;;
31734;SDS011;18313;48.518;9.124;2023-06-14T09:15:34;11.48;;;3.15;;
31734;SDS011;18313;48.518;9.124;2023-06-14T09:18:02;8.15;;;3.35;;
31734;SDS011;18313;48.518;9.124;2023-06-14T09:20:30;9.25;;;3.30;;
31734;SDS011;18313;48.518;9.124;2023-06-14T09:22:58;7.00;;;3.53;;
31734;SDS011;18313;48.518;9.124;2023-06-14T09:25:27;9.40;;;3.22;;
31734;SDS011;18313;48.518;9.124;2023-06-14T09:28:06;6.75;;;3.63;;
31734;SDS011;18313;48.518;9.124;2023-06-14T09:30:38;9.05;;;3.45;;
31734;SDS011;18313;48.518;9.124;2023-06-14T09:33:05;6.65;;;3.20;;
31734;SDS011;18313;48.518;9.124;2023-06-14T09:35:33;7.68;;;3.05;;
31734;SDS011;18313;48.518;9.124;2023-06-14T09:38:00;5.25;;;3.45;;
31734;SDS011;18313;48.518;9.124;2023-06-14T09:40:27;7.35;;;3.42;;
31734;SDS011;18313;48.518;9.124;2023-06-14T09:42:54;5.45;;;3.10;;
31734;SDS011;18313;48.518;9.124;2023-06-14T09:45:25;7.70;;;3.33;;
31734;SDS011;18313;48.518;9.124;2023-06-14T09:47:56;7.60;;;3.58;;
31734;SDS011;18313;48.518;9.124;2023-06-14T09:50:33;5.63;;;3.17;;
31734;SDS011;18313;48.518;9.124;2023-06-14T09:53:07;9.68;;;3.67;;
31734;SDS011;18313;48.518;9.124;2023-06-14T09:55:37;9.23;;;3.20;;
31734;SDS011;18313;48.518;9.124;2023-06-14T09:58:07;11.77;;;3.50;;
31734;SDS011;18313;48.518;9.124;2023-06-14T10:00:36;6.65;;;3.30;;
31734;SDS011;18313;48.518;9.124;2023-06-14T10:03:07;5.53;;;2.95;;
31734;SDS011;18313;48.518;9.124;2023-06-14T10:05:43;6.90;;;3.17;;
31734;SDS011;18313;48.518;9.124;2023-06-14T10:08:14;5.47;;;3.20;;
31734;SDS011;18313;48.518;9.124;2023-06-14T10:10:44;4.57;;;3.10;;
31734;SDS011;18313;48.518;9.124;2023-06-14T10:13:12;6.13;;;2.97;;
31734;SDS011;18313;48.518;9.124;2023-06-14T10:15:50;6.93;;;3.38;;
31734;SDS011;18313;48.518;9.124;2023-06-14T10:18:42;6.78;;;3.40;;
31734;SDS011;18313;48.518;9.124;2023-06-14T10:21:25;5.35;;;3.03;;
31734;SDS011;18313;48.518;9.124;2023-06-14T10:24:01;8.90;;;3.17;;
31734;SDS011;18313;48.518;9.124;2023-06-14T10:26:32;6.50;;;3.10;;
31734;SDS011;18313;48.518;9.124;2023-06-14T10:29:08;5.25;;;2.88;;
31734;SDS011;18313;48.518;9.124;2023-06-14T10:31:42;6.65;;;2.92;;
31734;SDS011;18313;48.518;9.124;2023-06-14T10:34:26;6.22;;;3.40;;
31734;SDS011;18313;48.518;9.124;2023-06-14T10:37:01;6.50;;;2.95;;
31734;SDS011;18313;48.518;9.124;2023-06-14T10:39:38;5.28;;;3.08;;
31734;SDS011;18313;48.518;9.124;2023-06-14T10:42:10;6.57;;;2.90;;
31734;SDS011;18313;48.518;9.124;2023-06-14T10:47:22;5.82;;;3.33;;
31734;SDS011;18313;48.518;9.124;2023-06-14T10:52:29;6.00;;;2.92;;
31734;SDS011;18313;48.518;9.124;2023-06-14T11:00:19;5.43;;;2.75;;
31734;SDS011;18313;48.518;9.124;2023-06-14T11:05:24;9.27;;;3.50;;
31734;SDS011;18313;48.518;9.124;2023-06-14T11:10:39;5.22;;;2.75;;
31734;SDS011;18313;48.518;9.124;2023-06-14T11:13:08;5.07;;;3.00;;
31734;SDS011;18313;48.518;9.124;2023-06-14T11:15:36;4.20;;;2.80;;
31734;SDS011;18313;48.518;9.124;2023-06-14T11:18:05;5.55;;;2.90;;
31734;SDS011;18313;48.518;9.124;2023-06-14T11:20:34;6.57;;;2.95;;
31734;SDS011;18313;48.518;9.124;2023-06-14T11:23:03;5.25;;;3.00;;
31734;SDS011;18313;48.518;9.124;2023-06-14T11:25:31;5.55;;;3.00;;
31734;SDS011;18313;48.518;9.124;2023-06-14T11:27:59;8.20;;;3.13;;
31734;SDS011;18313;48.518;9.124;2023-06-14T11:30:27;6.88;;;3.38;;
31734;SDS011;18313;48.518;9.124;2023-06-14T11:32:54;5.80;;;2.53;;
31734;SDS011;18313;48.518;9.124;2023-06-14T11:35:25;4.55;;;2.80;;
31734;SDS011;18313;48.518;9.124;2023-06-14T11:37:53;5.40;;;3.25;;
31734;SDS011;18313;48.518;9.124;2023-06-14T11:40:25;6.03;;;2.88;;
31734;SDS011;18313;48.518;9.124;2023-06-14T11:42:59;6.82;;;3.22;;
31734;SDS011;18313;48.518;9.124;2023-06-14T11:45:28;7.07;;;3.15;;
31734;SDS011;18313;48.518;9.124;2023-06-14T11:47:56;7.40;;;3.13;;
31734;SDS011;18313;48.518;9.124;2023-06-14T11:50:25;7.50;;;3.35;;
31734;SDS011;18313;48.518;9.124;2023-06-14T11:52:56;6.78;;;3.28;;
31734;SDS011;18313;48.518;9.124;2023-06-14T11:55:26;6.10;;;2.95;;
31734;SDS011;18313;48.518;9.124;2023-06-14T11:57:53;5.13;;;3.10;;
31734;SDS011;18313;48.518;9.124;2023-06-14T12:00:24;7.63;;;3.40;;
31734;SDS011;18313;48.518;9.124;2023-06-14T12:02:54;6.13;;;3.17;;
31734;SDS011;18313;48.518;9.124;2023-06-14T12:05:23;5.25;;;3.22;;
31734;SDS011;18313;48.518;9.124;2023-06-14T12:08:02;6.50;;;2.90;;
31734;SDS011;18313;48.518;9.124;2023-06-14T12:10:39;6.97;;;3.40;;
31734;SDS011;18313;48.518;9.124;2023-06-14T12:13:10;9.35;;;3.33;;
31734;SDS011;18313;48.518;9.124;2023-06-14T12:15:37;8.02;;;3.22;;
31734;SDS011;18313;48.518;9.124;2023-06-14T12:18:05;5.60;;;3.03;;
31734;SDS011;18313;48.518;9.124;2023-06-14T12:20:35;6.13;;;3.33;;
31734;SDS011;18313;48.518;9.124;2023-06-14T12:23:03;6.20;;;3.90;;
31734;SDS011;18313;48.518;9.124;2023-06-14T12:27:59;3.70;;;3.00;;
31734;SDS011;18313;48.518;9.124;2023-06-14T12:30:35;7.00;;;3.00;;
31734;SDS011;18313;48.518;9.124;2023-06-14T12:33:03;8.40;;;3.20;;
31734;SDS011;18313;48.518;9.124;2023-06-14T12:35:31;5.43;;;3.53;;
31734;SDS011;18313;48.518;9.124;2023-06-14T12:37:58;9.98;;;3.72;;
31734;SDS011;18313;48.518;9.124;2023-06-14T12:40:25;5.60;;;3.15;;
31734;SDS011;18313;48.518;9.124;2023-06-14T12:42:53;5.32;;;3.20;;
31734;SDS011;18313;48.518;9.124;2023-06-14T12:45:20;9.45;;;3.50;;
31734;SDS011;18313;48.518;9.124;2023-06-14T12:47:47;6.35;;;3.05;;
31734;SDS011;18313;48.518;9.124;2023-06-14T12:50:16;5.53;;;3.03;;
31734;SDS011;18313;48.518;9.124;2023-06-14T12:52:43;4.97;;;3.00;;
31734;SDS011;18313;48.518;9.124;2023-06-14T12:55:11;6.15;;;3.42;;
31734;SDS011;18313;48.518;9.124;2023-06-14T12:57:38;6.13;;;3.22;;
31734;SDS011;18313;48.518;9.124;2023-06-14T13:00:05;6.72;;;3.20;;
31734;SDS011;18313;48.518;9.124;2023-06-14T13:02:34;6.65;;;3.00;;
31734;SDS011;18313;48.518;9.124;2023-06-14T13:05:02;5.95;;;3.17;;
31734;SDS011;18313;48.518;9.124;2023-06-14T13:07:30;6.85;;;3.30;;
31734;SDS011;18313;48.518;9.124;2023-06-14T13:09:58;6.00;;;3.00;;
31734;SDS011;18313;48.518;9.124;2023-06-14T13:12:25;7.72;;;3.20;;
31734;SDS011;18313;48.518;9.124;2023-06-14T13:14:52;6.03;;;3.17;;
31734;SDS011;18313;48.518;9.124;2023-06-14T13:17:19;9.23;;;3.28;;
31734;SDS011;18313;48.518;9.124;2023-06-14T13:19:46;6.20;;;3.20;;
31734;SDS011;18313;48.518;9.124;2023-06-14T13:22:13;12.18;;;3.30;;
31734;SDS011;18313;48.518;9.124;2023-06-14T13:24:41;7.78;;;3.50;;
31734;SDS011;18313;48.518;9.124;2023-06-14T13:27:08;8.95;;;3.30;;
31734;SDS011;18313;48.518;9.124;2023-06-14T13:29:35;8.90;;;3.30;;
31734;SDS011;18313;48.518;9.124;2023-06-14T13:32:03;6.43;;;3.15;;
31734;SDS011;18313;48.518;9.124;2023-06-14T13:34:30;6.07;;;3.17;;
31734;SDS011;18313;48.518;9.124;2023-06-14T13:36:58;5.18;;;3.15;;
31734;SDS011;18313;48.518;9.124;2023-06-14T13:39:28;6.90;;;3.00;;
31734;SDS011;18313;48.518;9.124;2023-06-14T13:41:55;6.80;;;3.30;;
31734;SDS011;18313;48.518;9.124;2023-06-14T13:44:22;5.80;;;3.53;;
31734;SDS011;18313;48.518;9.124;2023-06-14T13:46:51;7.03;;;2.80;;
31734;SDS011;18313;48.518;9.124;2023-06-14T13:49:18;9.45;;;3.20;;
31734;SDS011;18313;48.518;9.124;2023-06-14T13:51:45;5.85;;;3.15;;
31734;SDS011;18313;48.518;9.124;2023-06-14T13:54:13;6.82;;;3.03;;
31734;SDS011;18313;48.518;9.124;2023-06-14T13:56:41;6.70;;;3.10;;
31734;SDS011;18313;48.518;9.124;2023-06-14T13:59:09;7.20;;;3.00;;
31734;SDS011;18313;48.518;9.124;2023-06-14T14:01:37;5.30;;;2.80;;
31734;SDS011;18313;48.518;9.124;2023-06-14T14:04:04;8.38;;;3.25;;
31734;SDS011;18313;48.518;9.124;2023-06-14T14:06:31;6.53;;;3.30;;
31734;SDS011;18313;48.518;9.124;2023-06-14T14:08:59;5.85;;;3.10;;
31734;SDS011;18313;48.518;9.124;2023-06-14T14:11:27;7.10;;;3.25;;
31734;SDS011;18313;48.518;9.124;2023-06-14T14:13:54;7.63;;;3.00;;
31734;SDS011;18313;48.518;9.124;2023-06-14T14:16:21;4.95;;;2.80;;
31734;SDS011;18313;48.518;9.124;2023-06-14T14:18:49;6.40;;;2.85;;
31734;SDS011;18313;48.518;9.124;2023-06-14T14:21:16;9.75;;;2.85;;
31734;SDS011;18313;48.518;9.124;2023-06-14T14:23:43;7.47;;;2.80;;
31734;SDS011;18313;48.518;9.124;2023-06-14T14:26:12;6.13;;;2.95;;
31734;SDS011;18313;48.518;9.124;2023-06-14T14:28:39;8.13;;;3.10;;
31734;SDS011;18313;48.518;9.124;2023-06-14T14:31:06;7.75;;;3.40;;
31734;SDS011;18313;48.518;9.124;2023-06-14T14:33:34;7.18;;;3.08;;
31734;SDS011;18313;48.518;9.124;2023-06-14T14:36:01;6.68;;;3.78;;
31734;SDS011;18313;48.518;9.124;2023-06-14T14:38:30;8.30;;;3.50;;
31734;SDS011;18313;48.518;9.124;2023-06-14T14:40:57;8.32;;;3.05;;
31734;SDS011;18313;48.518;9.124;2023-06-14T14:43:25;5.68;;;2.92;;
31734;SDS011;18313;48.518;9.124;2023-06-14T14:45:53;4.38;;;3.08;;
31734;SDS011;18313;48.518;9.124;2023-06-14T14:48:20;9.50;;;3.20;;
31734;SDS011;18313;48.518;9.124;2023-06-14T14:50:47;4.85;;;2.80;;
31734;SDS011;18313;48.518;9.124;2023-06-14T14:53:14;8.43;;;3.53;;
31734;SDS011;18313;48.518;9.124;2023-06-14T14:55:44;4.60;;;2.88;;
31734;SDS011;18313;48.518;9.124;2023-06-14T14:58:12;5.80;;;3.10;;
31734;SDS011;18313;48.518;9.124;2023-06-14T15:00:40;6.25;;;3.17;;
31734;SDS011;18313;48.518;9.124;2023-06-14T15:03:07;7.10;;;3.10;;
31734;SDS011;18313;48.518;9.124;2023-06-14T15:05:35;8.98;;;3.63;;
31734;SDS011;18313;48.518;9.124;2023-06-14T15:08:03;5.82;;;3.10;;
31734;SDS011;18313;48.518;9.124;2023-06-14T15:10:39;13.43;;;3.30;;
31734;SDS011;18313;48.518;9.124;2023-06-14T15:13:10;6.97;;;2.90;;
31734;SDS011;18313;48.518;9.124;2023-06-14T15:15:37;8.57;;;3.10;;
31734;SDS011;18313;48.518;9.124;2023-06-14T15:18:04;4.85;;;2.80;;
31734;SDS011;18313;48.518;9.124;2023-06-14T15:20:32;6.30;;;3.00;;